createdAt,value
2019-05-11T00:01:18.160Z,76285.33
2019-05-11T00:03:47.691Z,76269.81
2019-05-11T00:06:17.313Z,76258.83
2019-05-11T00:08:46.802Z,76252.08
2019-05-11T00:11:16.259Z,76248.12
2019-05-11T00:13:45.755Z,76244.78
2019-05-11T00:16:18.772Z,76234.55
2019-05-11T00:18:46.446Z,76227.05
2019-05-11T00:21:15.954Z,76225.18
2019-05-11T00:23:45.419Z,76226.47
2019-05-11T00:26:14.929Z,76220.76
2019-05-11T00:28:44.677Z,76212.68
2019-05-11T00:31:14.154Z,76202.58
2019-05-11T00:33:43.632Z,76195.44
2019-05-11T00:36:13.120Z,76197.50
2019-05-11T00:38:42.618Z,76193.98
2019-05-11T00:41:12.160Z,76196.70
2019-05-11T00:43:41.631Z,76190.27
2019-05-11T00:46:11.105Z,76185.17
2019-05-11T00:48:40.642Z,76188.24
2019-05-11T00:51:10.379Z,76195.96
2019-05-11T00:53:39.858Z,76198.89
2019-05-11T00:56:09.211Z,76200.08
2019-05-11T00:58:38.730Z,76205.48
2019-05-11T01:01:08.205Z,76212.43
2019-05-11T01:03:37.700Z,76215.13
2019-05-11T01:06:07.303Z,76212.09
2019-05-11T01:08:36.766Z,76214.17
2019-05-11T01:11:06.247Z,76218.59
2019-05-11T01:13:35.654Z,76226.23
2019-05-11T01:16:05.130Z,76233.73
2019-05-11T01:18:34.687Z,76235.48
2019-05-11T01:21:04.294Z,76233.67
2019-05-11T01:23:33.776Z,76240.27
2019-05-11T01:26:03.283Z,76243.48
2019-05-11T01:28:32.685Z,76245.94
2019-05-11T01:31:02.174Z,76242.20
2019-05-11T01:33:32.443Z,76240.85
2019-05-11T01:36:01.997Z,76242.43
2019-05-11T01:38:31.477Z,76246.66
2019-05-11T01:41:00.983Z,76250.15
2019-05-11T01:43:30.464Z,76253.73
2019-05-11T01:46:00.064Z,76256.97
2019-05-11T01:48:29.546Z,76254.14
2019-05-11T01:50:59.011Z,76251.77
2019-05-11T01:53:28.477Z,76259.67
2019-05-11T01:55:57.984Z,76263.78
2019-05-11T01:58:27.468Z,76260.00
2019-05-11T02:00:56.970Z,76255.38
2019-05-11T02:03:26.440Z,76249.41
2019-05-11T02:05:55.935Z,76246.89
2019-05-11T02:08:25.448Z,76254.20
2019-05-11T02:10:54.911Z,76252.70
2019-05-11T02:13:24.458Z,76254.57
2019-05-11T02:15:53.954Z,76251.34
2019-05-11T02:18:23.474Z,76259.09
2019-05-11T02:20:52.990Z,76255.13
2019-05-11T02:23:22.521Z,76247.80
2019-05-11T02:25:51.977Z,76244.20
2019-05-11T02:28:21.390Z,76242.55
2019-05-11T02:30:50.891Z,76243.81
2019-05-11T02:33:20.364Z,76243.84
2019-05-11T02:35:49.854Z,76238.97
2019-05-11T02:38:19.533Z,76232.38
2019-05-11T02:40:49.107Z,76230.73
2019-05-11T02:43:18.721Z,76234.77
2019-05-11T02:45:48.237Z,76236.25
2019-05-11T02:48:17.809Z,76230.67
2019-05-11T02:50:47.314Z,76223.34
2019-05-11T02:53:16.823Z,76217.84
2019-05-11T02:55:46.393Z,76205.61
2019-05-11T02:58:15.905Z,76195.83
2019-05-11T03:00:46.327Z,76185.88
2019-05-11T03:03:15.839Z,76176.42
2019-05-11T03:05:45.296Z,76166.81
2019-05-11T03:08:14.803Z,76158.70
2019-05-11T03:10:44.277Z,76156.05
2019-05-11T03:13:13.797Z,76151.47
2019-05-11T03:15:43.316Z,76142.27
2019-05-11T03:18:12.873Z,76145.17
2019-05-11T03:20:42.345Z,76145.59
2019-05-11T03:23:11.855Z,76137.69
2019-05-11T03:25:41.337Z,76131.27
2019-05-11T03:28:10.904Z,76129.66
2019-05-11T03:30:40.651Z,76132.55
2019-05-11T03:33:10.426Z,76129.97
2019-05-11T03:35:40.294Z,76128.72
2019-05-11T03:38:09.802Z,76126.69
2019-05-11T03:40:39.272Z,76121.58
2019-05-11T03:43:08.821Z,76121.91
2019-05-11T03:45:38.491Z,76122.55
2019-05-11T03:48:07.967Z,76123.39
2019-05-11T03:50:37.447Z,76124.13
2019-05-11T03:53:06.960Z,76125.65
2019-05-11T03:55:36.434Z,76125.65
2019-05-11T03:58:05.849Z,76124.13
2019-05-11T04:00:35.336Z,76130.07
2019-05-11T04:03:04.802Z,76132.72
2019-05-11T04:05:34.262Z,76136.44
2019-05-11T04:08:03.908Z,76145.11
2019-05-11T04:10:33.368Z,76149.92
2019-05-11T04:13:02.857Z,76152.28
2019-05-11T04:15:32.281Z,76160.67
2019-05-11T04:18:01.760Z,76169.88
2019-05-11T04:20:31.261Z,76173.84
2019-05-11T04:23:00.740Z,76178.42
2019-05-11T04:25:30.209Z,76184.69
2019-05-11T04:27:59.729Z,76191.14
2019-05-11T04:30:29.192Z,76195.16
2019-05-11T04:32:58.617Z,76197.13
2019-05-11T04:35:28.180Z,76206.09
2019-05-11T04:37:57.724Z,76218.04
2019-05-11T04:40:27.200Z,76221.80
2019-05-11T04:42:56.776Z,76233.87
2019-05-11T04:45:26.353Z,76249.98
2019-05-11T04:47:55.819Z,76263.71
2019-05-11T04:50:25.462Z,76269.85
2019-05-11T04:52:55.000Z,76290.69
2019-05-11T04:55:24.487Z,76292.27
2019-05-11T04:57:54.030Z,76299.67
2019-05-11T05:00:23.519Z,76308.95
2019-05-11T05:02:53.061Z,76318.81
2019-05-11T05:05:22.680Z,76320.32
2019-05-11T05:07:52.280Z,76331.95
2019-05-11T05:10:22.378Z,76340.74
2019-05-11T05:12:53.373Z,76342.30
2019-05-11T05:15:23.342Z,76331.79
2019-05-11T05:17:52.919Z,76345.59
2019-05-11T05:20:22.455Z,76371.06
2019-05-11T05:22:51.936Z,76407.38
2019-05-11T05:25:21.460Z,76432.92
2019-05-11T05:27:50.931Z,76427.67
2019-05-11T05:30:20.404Z,76416.07
2019-05-11T05:32:49.988Z,76413.77
2019-05-11T05:35:19.458Z,76418.98
2019-05-11T05:37:49.037Z,76422.25
2019-05-11T05:40:18.537Z,76429.34
2019-05-11T05:42:48.122Z,76436.16
2019-05-11T05:45:17.588Z,76449.09
2019-05-11T05:47:47.092Z,76462.97
2019-05-11T05:50:16.575Z,76473.91
2019-05-11T05:52:46.137Z,76481.86
2019-05-11T05:55:15.720Z,76482.77
2019-05-11T05:57:45.274Z,76495.70
2019-05-11T06:00:14.766Z,76503.67
2019-05-11T06:02:44.270Z,76515.97
2019-05-11T06:05:13.738Z,76515.97
2019-05-11T06:07:43.239Z,76520.91
2019-05-11T06:10:12.718Z,76515.41
2019-05-11T06:12:42.200Z,76515.09
2019-05-11T06:15:11.720Z,76510.67
2019-05-11T06:17:41.196Z,76512.73
2019-05-11T06:20:10.802Z,76510.88
2019-05-11T06:22:40.420Z,76509.30
2019-05-11T06:25:09.891Z,76515.45
2019-05-11T06:27:39.354Z,76516.02
2019-05-11T06:30:08.959Z,76509.10
2019-05-11T06:32:38.436Z,76508.20
2019-05-11T06:35:08.461Z,76520.66
2019-05-11T06:37:37.945Z,76530.66
2019-05-11T06:40:08.327Z,76551.57
2019-05-11T06:42:38.569Z,76566.58
2019-05-11T06:45:08.052Z,76574.02
2019-05-11T06:47:37.680Z,76586.56
2019-05-11T06:50:07.204Z,76602.66
2019-05-11T06:52:36.674Z,76615.28
2019-05-11T06:55:06.134Z,76629.75
2019-05-11T06:57:35.642Z,76636.98
2019-05-11T07:00:05.813Z,76643.48
2019-05-11T07:02:35.288Z,76659.13
2019-05-11T07:05:06.615Z,76655.01
2019-05-11T07:07:47.219Z,76645.33
2019-05-11T07:10:07.549Z,76642.50
2019-05-11T07:12:37.044Z,76646.82
2019-05-11T07:15:08.228Z,76641.64
2019-05-11T07:17:37.963Z,76640.02
2019-05-11T07:20:09.107Z,76648.70
2019-05-11T07:22:38.577Z,76660.75
2019-05-11T07:25:08.128Z,76658.61
2019-05-11T07:27:37.679Z,76668.66
2019-05-11T07:30:08.704Z,76701.14
2019-05-11T07:32:38.435Z,76724.14
2019-05-11T07:35:08.820Z,76737.33
2019-05-11T07:37:38.901Z,76756.63
2019-05-11T07:40:08.501Z,76781.20
2019-05-11T07:42:38.306Z,76808.98
2019-05-11T07:45:09.046Z,76819.80
2019-05-11T07:47:38.699Z,76841.25
2019-05-11T07:50:08.717Z,76873.23
2019-05-11T07:52:38.204Z,76894.67
2019-05-11T07:55:08.640Z,76915.47
2019-05-11T07:57:39.219Z,76931.80
2019-05-11T08:00:09.039Z,76932.34
2019-05-11T08:02:38.946Z,76949.11
2019-05-11T08:05:08.857Z,76979.70
2019-05-11T08:07:38.577Z,77007.22
2019-05-11T08:10:08.439Z,77027.45
2019-05-11T08:12:39.172Z,77031.72
2019-05-11T08:15:13.189Z,77037.91
2019-05-11T08:17:40.733Z,77058.16
2019-05-11T08:20:10.294Z,77079.56
2019-05-11T08:22:39.774Z,77097.75
2019-05-11T08:25:09.473Z,77111.95
2019-05-11T08:27:39.121Z,77122.19
2019-05-11T08:30:12.074Z,77135.48
2019-05-11T08:32:41.567Z,77110.17
2019-05-11T08:35:11.037Z,77092.73
2019-05-11T08:37:40.521Z,77111.95
2019-05-11T08:40:10.126Z,77145.74
2019-05-11T08:42:39.625Z,77167.80
2019-05-11T08:45:18.992Z,77181.13
2019-05-11T08:47:40.499Z,77193.83
2019-05-11T08:50:10.268Z,77207.48
2019-05-11T08:52:39.753Z,77210.02
2019-05-11T08:55:09.658Z,77223.38
2019-05-11T08:57:39.141Z,77235.45
2019-05-11T09:00:10.963Z,77251.58
2019-05-11T09:02:40.472Z,77280.16
2019-05-11T09:05:10.034Z,77302.23
2019-05-11T09:07:39.501Z,77318.86
2019-05-11T09:10:09.012Z,77320.27
2019-05-11T09:12:38.577Z,77321.17
2019-05-11T09:15:08.889Z,77328.92
2019-05-11T09:17:38.650Z,77338.13
2019-05-11T09:20:08.826Z,77367.56
2019-05-11T09:22:38.487Z,77372.98
2019-05-11T09:25:09.022Z,77377.83
2019-05-11T09:27:38.532Z,77374.36
2019-05-11T09:30:08.575Z,77408.95
2019-05-11T09:32:38.641Z,77449.69
2019-05-11T09:35:08.524Z,77492.41
2019-05-11T09:37:38.334Z,77537.34
2019-05-11T09:40:08.087Z,77571.08
2019-05-11T09:42:38.827Z,77592.94
2019-05-11T09:45:08.526Z,77580.27
2019-05-11T09:47:38.766Z,77553.22
2019-05-11T09:50:08.814Z,77565.41
2019-05-11T09:52:38.710Z,77605.89
2019-05-11T09:55:08.928Z,77650.91
2019-05-11T09:57:38.736Z,77705.56
2019-05-11T10:00:08.862Z,77720.94
2019-05-11T10:02:38.879Z,77728.38
2019-05-11T10:05:08.638Z,77758.00
2019-05-11T10:07:38.349Z,77750.92
2019-05-11T10:10:09.405Z,77763.68
2019-05-11T10:12:39.036Z,77722.24
2019-05-11T10:15:08.731Z,77695.14
2019-05-11T10:17:38.644Z,77701.20
2019-05-11T10:20:09.472Z,77734.78
2019-05-11T10:22:38.937Z,77728.88
2019-05-11T10:25:09.195Z,77710.02
2019-05-11T10:27:38.776Z,77728.38
2019-05-11T10:30:08.878Z,77804.14
2019-05-11T10:32:39.057Z,77909.08
2019-05-11T10:35:08.532Z,77987.47
2019-05-11T10:37:38.952Z,78077.09
2019-05-11T10:40:09.529Z,78137.78
2019-05-11T10:42:39.354Z,78114.64
2019-05-11T10:45:09.389Z,78083.38
2019-05-11T10:47:39.144Z,78019.27
2019-05-11T10:50:08.864Z,78033.30
2019-05-11T10:52:38.323Z,78063.52
2019-05-11T10:55:08.901Z,78132.13
2019-05-11T10:57:38.890Z,78175.94
2019-05-11T11:00:09.185Z,78173.88
2019-05-11T11:02:38.838Z,78076.62
2019-05-11T11:05:08.448Z,77977.48
2019-05-11T11:07:38.533Z,77946.70
2019-05-11T11:10:09.065Z,77985.43
2019-05-11T11:12:38.781Z,78033.71
2019-05-11T11:15:09.033Z,78080.20
2019-05-11T11:17:38.538Z,78124.52
2019-05-11T11:20:08.798Z,78114.31
2019-05-11T11:22:43.500Z,78100.64
2019-05-11T11:25:09.614Z,78151.75
2019-05-11T11:27:39.089Z,78190.05
2019-05-11T11:30:09.320Z,78177.45
2019-05-11T11:32:58.845Z,78222.39
2019-05-11T11:35:28.665Z,78235.92
2019-05-11T11:37:58.587Z,78249.72
2019-05-11T11:40:28.379Z,78261.86
2019-05-11T11:42:58.204Z,78293.63
2019-05-11T11:45:28.829Z,78284.95
2019-05-11T11:47:58.618Z,78286.19
2019-05-11T11:50:28.474Z,78303.22
2019-05-11T11:52:58.079Z,78347.67
2019-05-11T11:55:28.970Z,78398.60
2019-05-11T11:57:59.043Z,78382.53
2019-05-11T12:00:29.099Z,78418.47
2019-05-11T12:02:58.771Z,78494.48
2019-05-11T12:05:28.479Z,78575.77
2019-05-11T12:07:58.206Z,78542.91
2019-05-11T12:10:28.699Z,78592.75
2019-05-11T12:13:44.163Z,78552.05
2019-05-11T12:16:13.662Z,78549.88
2019-05-11T12:18:43.164Z,78612.82
2019-05-11T12:21:12.772Z,78670.00
2019-05-11T12:23:42.321Z,78674.66
2019-05-11T12:26:11.757Z,78684.11
2019-05-11T12:28:41.156Z,78758.22
2019-05-11T12:31:11.000Z,78819.45
2019-05-11T12:33:40.464Z,78763.45
2019-05-11T12:36:09.971Z,78662.72
2019-05-11T12:38:39.653Z,78550.80
2019-05-11T12:41:09.125Z,78503.95
2019-05-11T12:43:38.606Z,78512.02
2019-05-11T12:46:08.253Z,78518.44
2019-05-11T12:48:38.074Z,78526.51
2019-05-11T12:51:08.175Z,78545.95
2019-05-11T12:53:38.491Z,78578.05
2019-05-11T12:56:08.500Z,78582.80
2019-05-11T12:58:39.600Z,78525.41
2019-05-11T13:01:09.410Z,78496.19
2019-05-11T13:03:38.884Z,78503.53
2019-05-11T13:06:08.483Z,78518.44
2019-05-11T13:08:38.881Z,78475.12
2019-05-11T13:11:08.855Z,78321.58
2019-05-11T13:13:38.453Z,78267.38
2019-05-11T13:16:08.704Z,78275.11
2019-05-11T13:18:38.612Z,78271.08
2019-05-11T13:21:08.315Z,78341.64
2019-05-11T13:23:38.354Z,78516.33
2019-05-11T13:26:08.811Z,78686.34
2019-05-11T13:28:38.575Z,78736.70
2019-05-11T13:31:08.370Z,78899.61
2019-05-11T13:33:38.531Z,79105.22
2019-05-11T13:36:09.049Z,79232.59
2019-05-11T13:38:38.978Z,79471.92
2019-05-11T13:41:08.539Z,79650.55
2019-05-11T13:43:38.615Z,79662.32
2019-05-11T13:47:02.937Z,79576.98
2019-05-11T13:49:32.752Z,79165.66
2019-05-11T13:52:02.303Z,78890.02
2019-05-11T13:54:31.834Z,78717.34
2019-05-11T13:57:01.311Z,78709.11
2019-05-11T13:59:30.819Z,78887.77
2019-05-11T14:02:00.224Z,78983.89
2019-05-11T14:04:29.706Z,78926.08
2019-05-11T14:06:59.395Z,79020.73
2019-05-11T14:09:29.687Z,79160.98
2019-05-11T14:11:59.187Z,79073.05
2019-05-11T14:14:29.110Z,79100.72
2019-05-11T14:16:58.990Z,78927.33
2019-05-11T14:19:29.184Z,78748.88
2019-05-11T14:21:59.322Z,78827.77
2019-05-11T14:24:28.969Z,78969.57
2019-05-11T14:26:58.481Z,78927.50
2019-05-11T14:29:28.553Z,78848.00
2019-05-11T14:31:58.284Z,78832.79
2019-05-11T14:34:28.482Z,78699.25
2019-05-11T14:36:58.355Z,78557.95
2019-05-11T14:39:28.126Z,78407.08
2019-05-11T14:41:58.691Z,78334.67
2019-05-11T14:44:28.789Z,78393.03
2019-05-11T14:46:59.234Z,78591.07
2019-05-11T14:49:29.155Z,78743.09
2019-05-11T14:51:58.663Z,78852.70
2019-05-11T14:54:28.827Z,78945.75
2019-05-11T14:56:58.778Z,78925.95
2019-05-11T14:59:28.744Z,78966.09
2019-05-11T15:01:58.500Z,78988.11
2019-05-11T15:04:28.693Z,78894.15
2019-05-11T15:06:58.380Z,78823.38
2019-05-11T15:09:28.553Z,78759.27
2019-05-11T15:11:58.271Z,78714.62
2019-05-11T15:14:28.916Z,78651.34
2019-05-11T15:16:58.506Z,78535.59
2019-05-11T15:19:28.019Z,78506.70
2019-05-11T15:21:58.170Z,78561.05
2019-05-11T15:24:28.742Z,78590.56
2019-05-11T15:26:58.523Z,78572.34
2019-05-11T15:29:28.757Z,78501.52
2019-05-11T15:31:58.411Z,78468.73
2019-05-11T15:34:28.840Z,78397.12
2019-05-11T15:36:58.564Z,78279.89
2019-05-11T15:39:28.670Z,78242.52
2019-05-11T15:42:09.332Z,78236.69
2019-05-11T15:44:29.679Z,78157.63
2019-05-11T15:46:59.177Z,78153.27
2019-05-11T15:49:28.647Z,78150.52
2019-05-11T15:51:58.156Z,78133.02
2019-05-11T15:54:28.798Z,78117.52
2019-05-11T15:56:59.974Z,78074.03
2019-05-11T15:59:30.533Z,78047.10
2019-05-11T16:02:00.464Z,77979.86
2019-05-11T16:04:29.961Z,77951.33
2019-05-11T16:07:00.112Z,77958.61
2019-05-11T16:09:29.802Z,77955.74
2019-05-11T16:11:59.282Z,77921.66
2019-05-11T16:14:28.803Z,77887.28
2019-05-11T16:16:58.537Z,77861.75
2019-05-11T16:19:28.255Z,77868.83
2019-05-11T16:21:57.823Z,77895.34
2019-05-11T16:24:27.422Z,77901.36
2019-05-11T16:26:58.251Z,77945.42
2019-05-11T16:29:28.203Z,77965.11
2019-05-11T16:31:57.979Z,77982.13
2019-05-11T16:34:27.869Z,77975.72
2019-05-11T16:36:57.480Z,77942.55
2019-05-11T16:39:27.981Z,77899.13
2019-05-11T16:42:17.103Z,77851.95
2019-05-11T16:44:48.303Z,77789.20
2019-05-11T16:47:18.178Z,77756.98
2019-05-11T16:49:47.822Z,77730.28
2019-05-11T16:52:18.330Z,77709.39
2019-05-11T16:54:48.048Z,77692.52
2019-05-11T16:57:17.812Z,77670.52
2019-05-11T16:59:48.378Z,77657.02
2019-05-11T17:02:18.784Z,77640.81
2019-05-11T17:04:48.461Z,77629.70
2019-05-11T17:07:18.041Z,77617.87
2019-05-11T17:09:48.294Z,77613.88
2019-05-11T17:12:18.155Z,77619.13
2019-05-11T17:15:00.381Z,77618.77
2019-05-11T17:17:29.888Z,77607.28
2019-05-11T17:19:59.421Z,77595.94
2019-05-11T17:22:28.937Z,77563.16
2019-05-11T17:24:58.939Z,77548.58
2019-05-11T17:27:28.728Z,77526.70
2019-05-11T17:29:59.308Z,77506.75
2019-05-11T17:32:29.496Z,77493.09
2019-05-11T17:34:59.052Z,77486.00
2019-05-11T17:37:28.767Z,77484.01
2019-05-11T17:39:58.708Z,77490.68
2019-05-11T17:42:28.606Z,77497.38
2019-05-11T17:44:58.900Z,77489.89
2019-05-11T17:47:47.962Z,77480.24
2019-05-11T17:50:19.091Z,77465.48
2019-05-11T17:52:48.817Z,77458.88
2019-05-11T17:55:18.691Z,77455.84
2019-05-11T17:57:49.183Z,77448.17
2019-05-11T18:00:20.717Z,77443.44
2019-05-11T18:02:50.435Z,77429.67
2019-05-11T18:05:19.902Z,77420.54
2019-05-11T18:07:49.315Z,77417.06
2019-05-11T18:10:18.794Z,77409.45
2019-05-11T18:12:48.890Z,77399.38
2019-05-11T18:15:19.066Z,77397.03
2019-05-11T18:17:49.019Z,77395.84
2019-05-11T18:20:21.749Z,77393.78
2019-05-11T18:22:50.259Z,77394.99
2019-05-11T18:25:19.733Z,77391.68
2019-05-11T18:27:49.215Z,77390.14
2019-05-11T18:30:18.729Z,77388.98
2019-05-11T18:32:49.240Z,77385.19
2019-05-11T18:35:19.668Z,77381.37
2019-05-11T18:37:49.332Z,77381.33
2019-05-11T18:40:19.039Z,77375.37
2019-05-11T18:42:49.191Z,77364.86
2019-05-11T18:45:19.295Z,77359.75
2019-05-11T18:47:49.473Z,77306.67
2019-05-11T18:50:30.134Z,77239.28
2019-05-11T18:52:50.486Z,77187.22
2019-05-11T18:55:19.982Z,77151.77
2019-05-11T18:57:49.577Z,77121.78
2019-05-11T19:00:19.832Z,77084.67
2019-05-11T19:02:49.905Z,77045.00
2019-05-11T19:05:19.554Z,77000.38
2019-05-11T19:07:49.027Z,76956.38
2019-05-11T19:10:18.648Z,76948.56
2019-05-11T19:12:48.990Z,76920.47
2019-05-11T19:15:19.236Z,76863.67
2019-05-11T19:17:49.494Z,76829.22
2019-05-11T19:20:19.141Z,76794.92
2019-05-11T19:22:48.612Z,76782.02
2019-05-11T19:25:18.499Z,76771.07
2019-05-11T19:27:50.687Z,76747.16
2019-05-11T19:30:20.232Z,76733.34
2019-05-11T19:32:50.308Z,76723.47
2019-05-11T19:35:21.301Z,76708.43
2019-05-11T19:37:51.513Z,76694.14
2019-05-11T19:40:21.046Z,76676.38
2019-05-11T19:42:53.805Z,76658.26
2019-05-11T19:45:24.044Z,76636.72
2019-05-11T19:47:54.241Z,76632.96
2019-05-11T19:50:23.701Z,76639.52
2019-05-11T19:52:53.517Z,76635.55
2019-05-11T19:55:22.987Z,76647.28
2019-05-11T19:57:52.793Z,76651.11
2019-05-11T20:00:22.457Z,76633.45
2019-05-11T20:02:51.923Z,76616.03
2019-05-11T20:05:21.402Z,76602.95
2019-05-11T20:07:50.909Z,76604.02
2019-05-11T20:10:20.398Z,76596.86
2019-05-11T20:12:50.126Z,76606.41
2019-05-11T20:15:19.549Z,76622.14
2019-05-11T20:17:49.249Z,76631.81
2019-05-11T20:20:19.027Z,76628.50
2019-05-11T20:22:48.947Z,76617.36
2019-05-11T20:25:19.365Z,76612.85
2019-05-11T20:27:49.229Z,76600.88
2019-05-11T20:30:19.570Z,76601.91
2019-05-11T20:32:49.506Z,76587.92
2019-05-11T20:35:19.217Z,76584.65
2019-05-11T20:37:48.703Z,76578.77
2019-05-11T20:40:18.602Z,76563.47
2019-05-11T20:42:48.598Z,76548.13
2019-05-11T20:45:18.829Z,76553.13
2019-05-11T20:47:49.097Z,76549.05
2019-05-11T20:50:18.946Z,76538.05
2019-05-11T20:52:49.235Z,76541.38
2019-05-11T20:55:18.720Z,76527.52
2019-05-11T20:57:48.746Z,76524.55
2019-05-11T21:00:18.803Z,76523.78
2019-05-11T21:02:49.153Z,76522.23
2019-05-11T21:05:18.933Z,76520.38
2019-05-11T21:07:48.407Z,76510.56
2019-05-11T21:10:17.926Z,76497.78
2019-05-11T21:12:47.442Z,76504.75
2019-05-11T21:15:16.920Z,76510.09
2019-05-11T21:17:50.182Z,76509.99
2019-05-11T21:20:18.159Z,76504.52
2019-05-11T21:22:48.636Z,76507.11
2019-05-11T21:25:18.423Z,76512.16
2019-05-11T21:27:48.667Z,76514.68
2019-05-11T21:30:18.653Z,76510.83
2019-05-11T21:32:48.367Z,76512.97
2019-05-11T21:35:19.181Z,76513.84
2019-05-11T21:37:49.031Z,76503.46
2019-05-11T21:40:18.598Z,76508.38
2019-05-11T21:42:48.165Z,76495.40
2019-05-11T21:45:18.365Z,76499.28
2019-05-11T21:47:49.034Z,76500.55
2019-05-11T21:50:19.354Z,76507.20
2019-05-11T21:52:48.977Z,76514.84
2019-05-11T21:55:18.449Z,76510.13
2019-05-11T21:57:49.784Z,76517.59
2019-05-11T22:00:19.204Z,76501.94
2019-05-11T22:02:48.825Z,76508.18
2019-05-11T22:05:20.876Z,76500.02
2019-05-11T22:07:49.738Z,76500.88
2019-05-11T22:10:19.222Z,76495.95
2019-05-11T22:12:49.144Z,76501.61
2019-05-11T22:15:18.825Z,76497.89
2019-05-11T22:17:48.500Z,76501.00
2019-05-11T22:20:18.525Z,76501.71
2019-05-11T22:22:48.539Z,76497.72
2019-05-11T22:25:18.428Z,76509.93
2019-05-11T22:27:48.817Z,76503.17
2019-05-11T22:30:18.792Z,76499.70
2019-05-11T22:32:48.372Z,76512.64
2019-05-11T22:35:18.538Z,76509.83
2019-05-11T22:37:49.095Z,76499.38
2019-05-11T22:40:18.824Z,76498.41
2019-05-11T22:42:48.301Z,76494.52
2019-05-11T22:45:18.737Z,76486.67
2019-05-11T22:47:48.567Z,76471.14
2019-05-11T22:50:18.837Z,76459.20
2019-05-11T22:52:48.817Z,76450.08
2019-05-11T22:55:19.073Z,76443.64
2019-05-11T22:57:48.838Z,76439.75
2019-05-11T23:00:28.671Z,76443.52
2019-05-11T23:02:58.757Z,76436.11
2019-05-11T23:05:29.962Z,76425.70
2019-05-11T23:07:59.610Z,76405.19
2019-05-11T23:10:29.091Z,76398.50
2019-05-11T23:12:58.571Z,76396.56
2019-05-11T23:15:28.086Z,76392.77
2019-05-11T23:17:59.796Z,76391.55
2019-05-11T23:20:30.166Z,76391.80
2019-05-11T23:23:01.682Z,76387.64
2019-05-11T23:25:31.727Z,76387.48
2019-05-11T23:28:01.187Z,76386.19
2019-05-11T23:30:30.733Z,76375.77
2019-05-11T23:33:00.191Z,76365.27
2019-05-11T23:35:30.384Z,76367.37
2019-05-11T23:37:59.874Z,76358.92
2019-05-11T23:40:29.385Z,76349.88
2019-05-11T23:42:58.939Z,76341.38
2019-05-11T23:45:28.477Z,76345.35
2019-05-11T23:47:58.877Z,76344.87
2019-05-11T23:50:28.665Z,76337.98
2019-05-11T23:53:06.452Z,76329.85
2019-05-11T23:55:29.887Z,76332.56
2019-05-11T23:57:59.368Z,76329.10
